Time;durP1;ratioP1;P1;durP2;ratioP2;P2;SDS_P1;SDS_P2;PMS_P1;PMS_P2;Temp;Humidity;BMP_temperature;BMP_pressure;BME280_temperature;BME280_humidity;BME280_pressure;Samples;Min_cycle;Max_cycle;Signal;HPM_P1;HPM_P2
2021/09/25 00:00:30;;;;;;;2.00;1.63;;;20.80;65.80;;;;;;5034912;28;20082;-79
2021/09/25 00:02:58;;;;;;;1.80;1.67;;;20.80;65.80;;;;;;5055753;28;20081;-79
2021/09/25 00:05:28;;;;;;;1.95;1.75;;;20.80;65.80;;;;;;5055472;28;20066;-79
2021/09/25 00:07:54;;;;;;;1.83;1.55;;;20.80;65.80;;;;;;5026440;28;20032;-80
2021/09/25 00:10:20;;;;;;;3.30;1.80;;;20.80;65.80;;;;;;5050150;28;20066;-79
2021/09/25 00:12:46;;;;;;;2.42;1.75;;;20.80;65.90;;;;;;5071099;28;20033;-79
2021/09/25 00:15:12;;;;;;;2.38;1.75;;;20.80;65.90;;;;;;5040753;28;20067;-79
2021/09/25 00:17:38;;;;;;;2.97;1.90;;;20.80;65.90;;;;;;5038209;28;20077;-79
2021/09/25 00:20:05;;;;;;;2.78;1.60;;;20.80;65.90;;;;;;5053391;28;20499;-80
2021/09/25 00:22:31;;;;;;;1.90;1.50;;;20.70;65.90;;;;;;5071570;28;20039;-79
2021/09/25 00:24:57;;;;;;;2.17;1.77;;;20.70;66.00;;;;;;5055076;28;20373;-79
2021/09/25 00:27:24;;;;;;;1.67;1.52;;;20.70;65.90;;;;;;5040666;28;20453;-79
2021/09/25 00:29:50;;;;;;;2.85;1.95;;;20.70;65.90;;;;;;5062836;28;20099;-79
2021/09/25 00:32:16;;;;;;;2.30;1.67;;;20.70;65.90;;;;;;5065449;28;20021;-81
2021/09/25 00:34:42;;;;;;;2.22;1.60;;;20.70;65.90;;;;;;5062471;28;20017;-79
2021/09/25 00:37:08;;;;;;;2.50;1.80;;;20.70;65.90;;;;;;5061689;28;20108;-79
2021/09/25 00:39:33;;;;;;;2.95;1.77;;;20.70;66.00;;;;;;5045680;28;20032;-83
2021/09/25 00:41:59;;;;;;;1.45;1.35;;;20.70;66.00;;;;;;5046780;28;20454;-79
2021/09/25 00:44:25;;;;;;;1.83;1.45;;;20.60;65.90;;;;;;5043686;28;20393;-79
2021/09/25 00:46:51;;;;;;;1.77;1.60;;;20.70;66.00;;;;;;5029852;28;20423;-79
2021/09/25 00:49:20;;;;;;;2.00;1.38;;;20.60;66.00;;;;;;5043703;28;20033;-78
2021/09/25 00:51:49;;;;;;;1.75;1.58;;;20.60;66.00;;;;;;5075926;28;20101;-78
2021/09/25 00:54:15;;;;;;;1.83;1.60;;;20.60;66.00;;;;;;5045845;28;20435;-79
2021/09/25 00:56:44;;;;;;;1.45;1.30;;;20.60;66.00;;;;;;5054997;28;20017;-80
2021/09/25 00:59:11;;;;;;;2.22;1.50;;;20.60;66.10;;;;;;5048969;28;20039;-79
2021/09/25 01:01:38;;;;;;;2.13;1.60;;;20.60;66.00;;;;;;5024858;28;20068;-81
2021/09/25 01:04:04;;;;;;;2.60;1.60;;;20.60;66.10;;;;;;5063999;28;20032;-78
2021/09/25 01:06:30;;;;;;;2.30;1.67;;;20.60;66.00;;;;;;5035561;28;20032;-80
2021/09/25 01:08:55;;;;;;;2.13;1.65;;;20.60;66.00;;;;;;5059069;28;20057;-79
2021/09/25 01:11:22;;;;;;;1.67;1.55;;;20.60;66.10;;;;;;5058719;28;20033;-79
2021/09/25 01:13:48;;;;;;;3.15;1.60;;;20.60;66.10;;;;;;5060576;28;20039;-78
2021/09/25 01:16:14;;;;;;;1.70;1.55;;;20.60;66.10;;;;;;5037220;28;20029;-79
2021/09/25 01:18:40;;;;;;;1.45;1.20;;;20.60;66.10;;;;;;5021693;28;20064;-79
2021/09/25 01:21:07;;;;;;;1.55;1.40;;;20.50;66.00;;;;;;5044664;28;20033;-80
2021/09/25 01:23:34;;;;;;;1.58;1.48;;;20.50;66.10;;;;;;5054603;28;20020;-79
2021/09/25 01:26:01;;;;;;;2.83;1.80;;;20.50;66.10;;;;;;5054419;28;20055;-79
2021/09/25 01:28:28;;;;;;;1.65;1.40;;;20.50;66.10;;;;;;5053984;28;20108;-79
2021/09/25 01:30:54;;;;;;;2.13;1.70;;;20.50;66.10;;;;;;5052940;28;20048;-78
2021/09/25 01:33:28;;;;;;;2.30;1.75;;;20.50;66.10;;;;;;5049205;28;20094;-78
2021/09/25 01:35:54;;;;;;;2.38;1.67;;;20.50;66.20;;;;;;5049765;28;20033;-79
2021/09/25 01:38:20;;;;;;;2.10;1.67;;;20.50;66.10;;;;;;5036147;28;20108;-78
2021/09/25 01:40:46;;;;;;;2.55;1.80;;;20.50;66.20;;;;;;5062256;28;20029;-79
2021/09/25 01:43:12;;;;;;;2.88;1.55;;;20.50;66.80;;;;;;5048186;28;20025;-78
2021/09/25 01:45:38;;;;;;;2.67;1.73;;;20.50;66.20;;;;;;5050289;28;20112;-78
2021/09/25 01:48:04;;;;;;;2.85;1.90;;;20.50;66.20;;;;;;5054927;28;20362;-78
2021/09/25 01:50:30;;;;;;;2.22;1.55;;;20.50;66.20;;;;;;5042520;28;20040;-78
2021/09/25 01:52:55;;;;;;;2.05;1.48;;;20.50;66.20;;;;;;5028882;28;20024;-78
2021/09/25 01:55:21;;;;;;;2.35;1.60;;;20.40;66.20;;;;;;5041381;28;20424;-79
2021/09/25 01:57:47;;;;;;;1.63;1.45;;;20.50;66.20;;;;;;5054237;28;20116;-79
2021/09/25 02:00:13;;;;;;;2.50;1.85;;;20.50;66.20;;;;;;5042916;28;20485;-79
2021/09/25 02:02:39;;;;;;;2.55;2.00;;;20.50;66.30;;;;;;5039770;28;20029;-78
2021/09/25 02:05:05;;;;;;;2.90;2.22;;;20.50;66.30;;;;;;5053991;28;20383;-80
2021/09/25 02:07:31;;;;;;;2.78;2.10;;;20.50;66.30;;;;;;5043188;28;20059;-79
2021/09/25 02:09:57;;;;;;;2.50;2.10;;;20.40;66.20;;;;;;5063447;28;20075;-79
2021/09/25 02:12:23;;;;;;;2.85;2.05;;;20.40;66.30;;;;;;5031552;28;20561;-79
2021/09/25 02:14:49;;;;;;;2.90;2.00;;;20.40;66.30;;;;;;5044267;28;20029;-80
2021/09/25 02:17:15;;;;;;;2.95;1.92;;;20.40;66.20;;;;;;5033414;28;20034;-80
2021/09/25 02:19:41;;;;;;;2.95;2.00;;;20.40;66.30;;;;;;5071981;28;20041;-79
2021/09/25 02:22:07;;;;;;;2.38;1.83;;;20.40;66.30;;;;;;5039406;28;20615;-78
2021/09/25 02:24:33;;;;;;;2.75;2.00;;;20.40;66.30;;;;;;5021653;28;20469;-79
2021/09/25 02:27:00;;;;;;;2.95;2.05;;;20.40;66.30;;;;;;5040212;28;20082;-78
2021/09/25 02:29:26;;;;;;;3.55;1.90;;;20.40;66.30;;;;;;5041526;28;20504;-78
2021/09/25 02:31:52;;;;;;;3.08;2.05;;;20.40;66.30;;;;;;5046523;28;20179;-79
2021/09/25 02:34:18;;;;;;;3.88;2.58;;;20.40;66.30;;;;;;5055869;28;20040;-79
2021/09/25 02:36:44;;;;;;;3.70;2.40;;;20.40;66.30;;;;;;5053383;28;20029;-78
2021/09/25 02:39:09;;;;;;;3.67;2.30;;;20.40;66.30;;;;;;5045106;28;20042;-79
2021/09/25 02:41:35;;;;;;;4.13;2.35;;;20.30;66.30;;;;;;5042192;28;20371;-79
2021/09/25 02:44:01;;;;;;;2.28;1.63;;;20.30;66.30;;;;;;5046591;28;20370;-79
2021/09/25 02:46:27;;;;;;;3.38;2.10;;;20.40;66.30;;;;;;5028227;28;20171;-79
2021/09/25 02:48:53;;;;;;;3.50;2.33;;;20.40;66.40;;;;;;5038870;28;20037;-79
2021/09/25 02:51:18;;;;;;;3.63;2.20;;;20.30;66.30;;;;;;5052259;28;20037;-78
2021/09/25 02:53:44;;;;;;;3.58;2.30;;;20.30;66.30;;;;;;5049074;28;20029;-79
2021/09/25 02:56:11;;;;;;;2.45;2.08;;;20.30;66.40;;;;;;5059700;28;20060;-79
2021/09/25 02:58:37;;;;;;;3.72;2.40;;;20.30;66.40;;;;;;5051099;28;20029;-78
2021/09/25 03:01:02;;;;;;;3.22;2.33;;;20.30;66.40;;;;;;5051799;28;20033;-79
2021/09/25 03:03:28;;;;;;;3.63;2.35;;;20.30;66.40;;;;;;5037492;28;20043;-79
2021/09/25 03:05:54;;;;;;;4.00;2.70;;;20.30;66.40;;;;;;5053185;28;20527;-79
2021/09/25 03:08:20;;;;;;;3.40;2.15;;;20.30;66.40;;;;;;5034592;28;20087;-80
2021/09/25 03:10:46;;;;;;;3.75;2.47;;;20.30;66.40;;;;;;5051202;28;20124;-79
2021/09/25 03:13:11;;;;;;;3.65;2.47;;;20.30;66.40;;;;;;5042566;28;20440;-79
2021/09/25 03:15:37;;;;;;;3.45;2.40;;;20.30;66.50;;;;;;5023598;28;20021;-79
2021/09/25 03:18:03;;;;;;;4.30;2.65;;;20.30;66.50;;;;;;5056686;28;20033;-79
2021/09/25 03:20:29;;;;;;;3.13;2.30;;;20.20;66.40;;;;;;5052701;28;20036;-79
2021/09/25 03:22:55;;;;;;;4.30;2.85;;;20.30;66.50;;;;;;5050875;28;20025;-79
2021/09/25 03:25:20;;;;;;;3.85;2.22;;;20.20;66.50;;;;;;5066337;28;20636;-78
2021/09/25 03:27:46;;;;;;;4.07;2.75;;;20.20;66.50;;;;;;5047600;28;20110;-79
2021/09/25 03:30:13;;;;;;;4.28;2.83;;;20.20;66.50;;;;;;5062633;28;20036;-79
2021/09/25 03:32:40;;;;;;;4.53;2.80;;;20.20;66.50;;;;;;5038139;28;20041;-79
2021/09/25 03:35:07;;;;;;;3.65;2.38;;;20.20;66.50;;;;;;5057458;28;20025;-78
2021/09/25 03:37:32;;;;;;;3.65;2.60;;;20.20;66.50;;;;;;5063156;28;20008;-79
2021/09/25 03:39:58;;;;;;;4.28;2.70;;;20.20;66.50;;;;;;5029532;28;20575;-79
2021/09/25 03:42:24;;;;;;;3.85;2.53;;;20.20;66.50;;;;;;5044677;28;20456;-79
2021/09/25 03:44:50;;;;;;;3.65;2.47;;;20.20;66.50;;;;;;5059729;28;20025;-78
2021/09/25 03:47:15;;;;;;;3.50;2.25;;;20.20;66.50;;;;;;5042852;28;20519;-79
2021/09/25 03:49:41;;;;;;;3.60;2.28;;;20.10;66.50;;;;;;5059926;28;20465;-80
2021/09/25 03:52:08;;;;;;;4.20;2.72;;;20.10;66.50;;;;;;5017610;28;20083;-79
2021/09/25 03:54:34;;;;;;;3.58;2.33;;;20.20;66.60;;;;;;5034159;28;20025;-79
2021/09/25 03:57:00;;;;;;;3.97;2.60;;;20.10;66.50;;;;;;5063964;28;20074;-78
2021/09/25 03:59:26;;;;;;;4.65;2.90;;;20.10;66.50;;;;;;5045810;28;20090;-79
2021/09/25 04:01:51;;;;;;;4.40;2.90;;;20.10;66.50;;;;;;5052714;28;20083;-79
2021/09/25 04:04:17;;;;;;;5.97;3.20;;;20.10;66.60;;;;;;5041855;28;20056;-79
2021/09/25 04:06:43;;;;;;;5.22;2.88;;;20.10;66.60;;;;;;5034168;28;20387;-79
2021/09/25 04:09:09;;;;;;;3.97;2.80;;;20.10;66.60;;;;;;5017340;28;20061;-78
2021/09/25 04:11:35;;;;;;;4.18;2.90;;;20.10;66.60;;;;;;5045578;28;20037;-78
2021/09/25 04:14:01;;;;;;;3.67;2.53;;;20.10;66.60;;;;;;5038191;28;20025;-79
2021/09/25 04:16:27;;;;;;;4.88;2.85;;;20.10;66.60;;;;;;5025744;28;20370;-78
2021/09/25 04:18:54;;;;;;;4.03;2.90;;;20.10;66.70;;;;;;5056856;28;20033;-80
2021/09/25 04:21:20;;;;;;;3.78;2.40;;;20.10;66.70;;;;;;5058875;28;20063;-79
2021/09/25 04:23:46;;;;;;;4.03;2.60;;;20.10;66.70;;;;;;5041206;28;20029;-79
2021/09/25 04:26:11;;;;;;;4.60;2.72;;;20.10;66.70;;;;;;5049942;28;20037;-78
2021/09/25 04:28:37;;;;;;;4.25;2.80;;;20.10;66.70;;;;;;5052315;28;20036;-79
2021/09/25 04:31:03;;;;;;;4.00;2.65;;;20.00;66.70;;;;;;5036504;28;20481;-78
2021/09/25 04:33:29;;;;;;;4.47;2.85;;;20.10;66.70;;;;;;5050258;28;20028;-79
2021/09/25 04:35:55;;;;;;;4.47;2.78;;;20.10;66.70;;;;;;5033660;28;20037;-80
2021/09/25 04:38:21;;;;;;;4.55;2.78;;;20.00;66.70;;;;;;5033859;28;20447;-79
2021/09/25 04:40:47;;;;;;;3.92;2.75;;;20.00;66.70;;;;;;5033137;28;20402;-80
2021/09/25 04:43:13;;;;;;;4.05;2.50;;;20.00;66.70;;;;;;5041995;28;20056;-80
2021/09/25 04:45:38;;;;;;;5.15;2.92;;;20.00;66.70;;;;;;5046277;28;20829;-79
2021/09/25 04:48:04;;;;;;;4.70;3.00;;;20.00;66.70;;;;;;5054769;28;20685;-79
2021/09/25 04:50:30;;;;;;;3.88;2.70;;;20.00;66.70;;;;;;5057648;28;20039;-79
2021/09/25 04:53:10;;;;;;;4.05;2.60;;;20.00;66.70;;;;;;5043022;28;20075;-79
2021/09/25 04:55:37;;;;;;;5.13;3.13;;;20.00;66.90;;;;;;5060808;28;20022;-81
2021/09/25 04:58:03;;;;;;;3.83;2.60;;;20.00;66.80;;;;;;5060701;28;20029;-82
2021/09/25 05:00:29;;;;;;;4.47;3.10;;;19.90;66.70;;;;;;5053444;28;20021;-79
2021/09/25 05:02:55;;;;;;;4.50;3.10;;;20.00;66.80;;;;;;5058355;28;20025;-78
2021/09/25 05:05:21;;;;;;;4.10;2.90;;;19.90;66.80;;;;;;5035933;28;20052;-79
2021/09/25 05:07:47;;;;;;;4.22;2.90;;;19.90;66.80;;;;;;5058243;28;20485;-79
2021/09/25 05:10:13;;;;;;;5.07;3.10;;;19.90;66.80;;;;;;5063876;28;20048;-78
2021/09/25 05:12:39;;;;;;;4.85;3.28;;;19.90;66.80;;;;;;5063460;28;20060;-79
2021/09/25 05:15:05;;;;;;;3.92;2.67;;;19.90;66.80;;;;;;5053246;28;20072;-81
2021/09/25 05:17:31;;;;;;;5.07;3.10;;;19.90;66.80;;;;;;5044718;28;20029;-79
2021/09/25 05:19:56;;;;;;;3.80;2.60;;;19.90;66.80;;;;;;5042272;28;20033;-80
2021/09/25 05:22:22;;;;;;;5.28;3.28;;;19.90;66.80;;;;;;5029090;28;20385;-79
2021/09/25 05:24:48;;;;;;;4.97;3.00;;;19.90;66.80;;;;;;5054626;28;20572;-78
2021/09/25 05:27:14;;;;;;;3.78;2.72;;;19.90;66.80;;;;;;5052989;28;20013;-79
2021/09/25 05:29:40;;;;;;;4.43;3.03;;;19.90;66.80;;;;;;5054260;28;20033;-79
2021/09/25 05:32:07;;;;;;;4.45;2.50;;;19.90;66.80;;;;;;5043833;28;20038;-82
2021/09/25 05:34:33;;;;;;;4.45;2.83;;;19.80;66.80;;;;;;5059983;28;20040;-76
2021/09/25 05:36:59;;;;;;;4.38;2.83;;;19.90;66.90;;;;;;5067119;28;20033;-76
2021/09/25 05:39:25;;;;;;;4.65;2.97;;;19.90;66.90;;;;;;5043299;28;20041;-77
2021/09/25 05:41:52;;;;;;;4.30;2.88;;;19.90;66.90;;;;;;5064309;28;20039;-76
2021/09/25 05:44:17;;;;;;;5.07;3.17;;;19.90;66.90;;;;;;5058537;28;20033;-76
2021/09/25 05:46:43;;;;;;;4.75;3.20;;;19.90;66.90;;;;;;5054618;28;20380;-77
2021/09/25 05:49:09;;;;;;;3.88;2.70;;;19.80;66.80;;;;;;5043779;28;20516;-78
2021/09/25 05:51:35;;;;;;;4.60;2.90;;;19.80;66.80;;;;;;5042646;28;20064;-77
2021/09/25 05:54:01;;;;;;;4.05;2.63;;;19.80;66.90;;;;;;5050769;28;20031;-77
2021/09/25 05:56:26;;;;;;;4.82;3.05;;;19.80;66.90;;;;;;5066315;28;20473;-76
2021/09/25 05:58:52;;;;;;;3.95;2.78;;;19.80;66.90;;;;;;5049638;28;20030;-77
2021/09/25 06:01:18;;;;;;;4.20;2.75;;;19.80;66.90;;;;;;5027576;28;20025;-76
2021/09/25 06:03:43;;;;;;;4.68;2.88;;;19.80;66.90;;;;;;5028446;28;20021;-77
2021/09/25 06:06:09;;;;;;;3.70;2.60;;;19.80;66.90;;;;;;5043922;28;20421;-79
2021/09/25 06:08:35;;;;;;;4.35;2.95;;;19.80;66.90;;;;;;5041773;28;20056;-77
2021/09/25 06:11:01;;;;;;;4.35;2.75;;;19.80;66.90;;;;;;5015645;28;20033;-77
2021/09/25 06:13:26;;;;;;;4.22;2.45;;;19.80;66.90;;;;;;5031600;28;20032;-78
2021/09/25 06:15:52;;;;;;;4.35;2.78;;;19.80;67.00;;;;;;5069667;28;20063;-79
2021/09/25 06:18:18;;;;;;;4.18;2.60;;;19.80;67.00;;;;;;5062619;28;20481;-78
2021/09/25 06:20:44;;;;;;;5.38;3.00;;;19.80;67.00;;;;;;5026623;28;20040;-79
2021/09/25 06:23:09;;;;;;;4.05;2.78;;;19.80;67.00;;;;;;5043868;28;20082;-78
2021/09/25 06:25:35;;;;;;;4.25;2.60;;;19.80;67.00;;;;;;5037332;28;20044;-77
2021/09/25 06:28:02;;;;;;;4.45;2.65;;;19.80;67.00;;;;;;5064715;28;20064;-79
2021/09/25 06:30:28;;;;;;;3.78;2.55;;;19.80;67.00;;;;;;5061371;28;20091;-77
2021/09/25 06:32:54;;;;;;;4.82;2.88;;;19.80;67.10;;;;;;5043967;28;20025;-79
2021/09/25 06:35:21;;;;;;;3.55;2.55;;;19.80;67.10;;;;;;5053873;28;20090;-78
2021/09/25 06:37:46;;;;;;;4.00;2.58;;;19.70;67.00;;;;;;5058455;28;20037;-77
2021/09/25 06:40:12;;;;;;;3.97;2.58;;;19.80;67.10;;;;;;5043548;28;20047;-77
2021/09/25 06:42:39;;;;;;;4.25;2.70;;;19.70;67.10;;;;;;5060391;28;20107;-79
2021/09/25 06:45:05;;;;;;;4.15;2.53;;;19.70;67.10;;;;;;5051500;28;20049;-79
2021/09/25 06:47:31;;;;;;;4.28;2.88;;;19.80;67.10;;;;;;5047719;28;20037;-79
2021/09/25 06:49:57;;;;;;;4.03;2.53;;;19.80;67.10;;;;;;5048716;28;20444;-78
2021/09/25 06:52:24;;;;;;;4.80;2.78;;;19.70;67.10;;;;;;5028093;28;20040;-77
2021/09/25 06:54:51;;;;;;;3.92;2.65;;;19.80;67.10;;;;;;5043412;28;20036;-76
2021/09/25 06:57:17;;;;;;;3.58;2.45;;;19.70;67.10;;;;;;5042961;28;20025;-79
2021/09/25 06:59:42;;;;;;;3.92;2.53;;;19.70;67.10;;;;;;5061658;28;20033;-78
2021/09/25 07:02:08;;;;;;;3.92;2.78;;;19.70;67.10;;;;;;5024051;28;20041;-76
2021/09/25 07:04:34;;;;;;;3.65;2.70;;;19.70;67.10;;;;;;5056893;28;20085;-77
2021/09/25 07:07:00;;;;;;;3.90;2.60;;;19.70;67.10;;;;;;5025653;28;20021;-78
2021/09/25 07:09:25;;;;;;;3.53;2.30;;;19.70;67.10;;;;;;5040690;28;20048;-78
2021/09/25 07:11:51;;;;;;;4.35;2.58;;;19.70;67.10;;;;;;5040026;28;20497;-77
2021/09/25 07:14:17;;;;;;;3.53;2.40;;;19.70;67.20;;;;;;5050223;28;20435;-79
2021/09/25 07:16:45;;;;;;;3.17;2.28;;;19.70;67.20;;;;;;5058693;28;20033;-77
2021/09/25 07:19:11;;;;;;;4.03;2.50;;;19.80;67.20;;;;;;5043074;28;20033;-76
2021/09/25 07:21:37;;;;;;;3.83;2.70;;;19.80;67.30;;;;;;5057715;28;20060;-79
2021/09/25 07:24:03;;;;;;;3.55;2.33;;;19.70;67.20;;;;;;5053116;28;20087;-78
2021/09/25 07:26:29;;;;;;;3.20;2.28;;;19.70;67.20;;;;;;5059642;28;20037;-79
2021/09/25 07:28:55;;;;;;;3.92;2.53;;;19.80;67.30;;;;;;5045064;28;20036;-76
2021/09/25 07:31:21;;;;;;;3.75;2.45;;;19.70;67.20;;;;;;5050436;28;20538;-79
2021/09/25 07:33:46;;;;;;;3.67;2.42;;;19.70;67.90;;;;;;5055074;28;20021;-77
2021/09/25 07:36:12;;;;;;;4.35;2.75;;;19.70;67.30;;;;;;5047026;28;20497;-76
2021/09/25 07:38:38;;;;;;;3.28;2.30;;;19.80;67.40;;;;;;5055938;28;20041;-76
2021/09/25 07:41:04;;;;;;;3.53;2.40;;;19.80;67.40;;;;;;5059605;28;20408;-77
2021/09/25 07:43:30;;;;;;;3.85;2.53;;;19.80;67.40;;;;;;5060383;28;20040;-79
2021/09/25 07:45:57;;;;;;;3.95;2.70;;;19.80;67.40;;;;;;5055903;28;20021;-77
2021/09/25 07:48:24;;;;;;;3.40;2.10;;;19.80;67.40;;;;;;5060920;28;20029;-77
2021/09/25 07:50:50;;;;;;;3.38;2.50;;;19.80;67.50;;;;;;5036848;28;20485;-77
2021/09/25 07:53:16;;;;;;;3.50;2.30;;;19.80;67.50;;;;;;5060360;28;20029;-77
2021/09/25 07:55:42;;;;;;;3.72;2.42;;;19.80;67.40;;;;;;5042041;28;20397;-77
2021/09/25 07:58:08;;;;;;;3.35;2.38;;;19.80;67.40;;;;;;5042325;28;20108;-78
2021/09/25 08:00:35;;;;;;;4.32;2.80;;;19.80;67.50;;;;;;5050316;28;20032;-78
2021/09/25 08:03:01;;;;;;;3.45;2.28;;;19.80;67.50;;;;;;5061667;28;20053;-76
2021/09/25 08:05:27;;;;;;;3.20;2.30;;;19.80;67.50;;;;;;5056226;28;20025;-77
2021/09/25 08:07:53;;;;;;;3.63;2.53;;;19.80;67.50;;;;;;5030165;28;20040;-80
2021/09/25 08:10:19;;;;;;;3.63;2.35;;;19.90;67.50;;;;;;5041525;28;20052;-77
2021/09/25 08:12:45;;;;;;;3.45;2.30;;;19.80;67.50;;;;;;5038401;28;20044;-79
2021/09/25 08:15:13;;;;;;;3.60;2.47;;;19.90;67.50;;;;;;5038211;28;20040;-77
2021/09/25 08:17:38;;;;;;;3.33;2.45;;;19.90;67.50;;;;;;5058629;28;20377;-79
2021/09/25 08:20:12;;;;;;;4.07;2.90;;;19.90;67.50;;;;;;5050117;28;20032;-77
2021/09/25 08:22:38;;;;;;;4.00;2.53;;;19.90;67.50;;;;;;5050905;28;20025;-77
2021/09/25 08:25:05;;;;;;;3.35;2.30;;;19.90;67.50;;;;;;5063405;28;20060;-78
2021/09/25 08:27:31;;;;;;;4.50;2.60;;;19.90;67.50;;;;;;5035985;28;20025;-76
2021/09/25 08:29:57;;;;;;;3.97;2.58;;;19.90;67.50;;;;;;5057091;28;20087;-78
2021/09/25 08:32:22;;;;;;;3.95;2.53;;;19.90;67.50;;;;;;5050938;28;20781;-77
2021/09/25 08:34:51;;;;;;;4.25;2.60;;;20.00;67.50;;;;;;5031649;28;20044;-78
2021/09/25 08:37:17;;;;;;;3.97;2.53;;;19.90;67.50;;;;;;5048964;28;20029;-77
2021/09/25 08:39:43;;;;;;;3.60;2.50;;;20.00;67.50;;;;;;5032533;28;20739;-77
2021/09/25 08:42:15;;;;;;;3.42;2.55;;;20.00;67.50;;;;;;5045239;28;20037;-77
2021/09/25 08:44:43;;;;;;;3.42;2.40;;;20.00;67.60;;;;;;5053370;28;20111;-78
2021/09/25 08:47:08;;;;;;;3.47;2.33;;;20.00;67.60;;;;;;5055263;28;20063;-78
2021/09/25 08:49:34;;;;;;;3.33;2.40;;;20.00;67.50;;;;;;5046065;28;20370;-77
2021/09/25 08:52:01;;;;;;;3.65;2.35;;;20.00;67.50;;;;;;5038663;28;20534;-77
2021/09/25 08:54:27;;;;;;;3.42;2.40;;;20.00;67.50;;;;;;5062979;28;20062;-78
2021/09/25 08:56:53;;;;;;;3.25;2.13;;;20.10;67.60;;;;;;5023902;28;20029;-77
2021/09/25 08:59:18;;;;;;;4.00;2.63;;;20.10;67.60;;;;;;5053110;28;20480;-76
2021/09/25 09:01:45;;;;;;;3.83;2.60;;;20.00;67.50;;;;;;5065564;28;20040;-77
2021/09/25 09:04:11;;;;;;;4.05;2.85;;;20.10;67.50;;;;;;5040065;28;20029;-77
2021/09/25 09:06:38;;;;;;;3.90;2.63;;;20.10;67.50;;;;;;5068611;28;20020;-77
2021/09/25 09:09:07;;;;;;;4.28;2.67;;;20.10;67.50;;;;;;5047398;28;20052;-76
2021/09/25 09:11:39;;;;;;;3.58;2.45;;;20.10;67.50;;;;;;5066610;28;20028;-81
2021/09/25 09:14:05;;;;;;;3.25;2.38;;;20.10;67.50;;;;;;5026347;28;20025;-77
2021/09/25 09:16:31;;;;;;;3.67;2.53;;;20.10;67.40;;;;;;5039987;28;20093;-77
2021/09/25 09:18:58;;;;;;;3.80;2.65;;;20.10;67.40;;;;;;5057447;28;20029;-77
2021/09/25 09:21:27;;;;;;;4.53;2.83;;;20.10;67.50;;;;;;5031405;28;20071;-78
2021/09/25 09:23:56;;;;;;;4.18;3.05;;;20.20;67.80;;;;;;5065504;28;20110;-76
2021/09/25 09:26:24;;;;;;;4.78;3.03;;;20.20;67.80;;;;;;5063013;28;20043;-77
2021/09/25 09:28:53;;;;;;;5.32;3.15;;;20.20;67.90;;;;;;5061503;28;20044;-77
2021/09/25 09:31:23;;;;;;;5.72;3.55;;;20.20;67.90;;;;;;5056653;28;20029;-77
2021/09/25 09:34:00;;;;;;;5.00;3.20;;;20.20;68.50;;;;;;5055255;28;20354;-77
2021/09/25 09:36:28;;;;;;;4.43;3.15;;;20.30;67.90;;;;;;5074139;28;20025;-77
2021/09/25 09:39:03;;;;;;;5.10;3.47;;;20.20;67.80;;;;;;5056691;28;20040;-78
2021/09/25 09:41:42;;;;;;;4.93;3.38;;;20.20;67.80;;;;;;5054057;28;20033;-76
2021/09/25 09:44:11;;;;;;;5.35;3.30;;;20.30;67.80;;;;;;5066683;28;20024;-76
2021/09/25 09:46:57;;;;;;;4.75;3.00;;;20.30;67.70;;;;;;5061277;28;20516;-77
2021/09/25 09:49:33;;;;;;;4.55;2.85;;;20.30;67.70;;;;;;5047485;28;20037;-77
2021/09/25 09:52:04;;;;;;;4.05;2.95;;;20.30;67.70;;;;;;5069547;28;20037;-77
2021/09/25 09:54:33;;;;;;;5.15;2.95;;;20.30;67.60;;;;;;5043204;28;20029;-77
2021/09/25 09:57:04;;;;;;;5.35;3.30;;;20.30;67.60;;;;;;5041171;28;20025;-78
2021/09/25 09:59:30;;;;;;;4.18;2.70;;;20.40;67.60;;;;;;5054936;28;20060;-77
2021/09/25 10:01:56;;;;;;;4.47;2.92;;;20.30;67.50;;;;;;5040423;28;20061;-80
2021/09/25 10:04:22;;;;;;;4.28;2.75;;;20.40;67.50;;;;;;5040171;28;20035;-78
2021/09/25 10:06:51;;;;;;;4.75;3.15;;;20.40;67.50;;;;;;5063392;28;20025;-80
2021/09/25 10:09:19;;;;;;;4.53;2.90;;;20.40;67.50;;;;;;5050671;28;20045;-78
2021/09/25 10:11:48;;;;;;;4.90;3.00;;;20.40;67.50;;;;;;5059996;28;20032;-78
2021/09/25 10:14:25;;;;;;;4.22;2.97;;;20.50;67.50;;;;;;5061729;28;20068;-78
2021/09/25 10:16:53;;;;;;;5.07;2.90;;;20.50;67.60;;;;;;5060598;28;20029;-78
2021/09/25 10:19:23;;;;;;;5.65;2.75;;;20.50;67.50;;;;;;5064235;28;20167;-78
2021/09/25 10:21:53;;;;;;;4.40;3.10;;;20.50;67.40;;;;;;5062733;28;20119;-78
2021/09/25 10:24:32;;;;;;;4.25;2.70;;;20.50;67.40;;;;;;5045481;28;20094;-78
2021/09/25 10:27:00;;;;;;;4.15;2.83;;;20.50;67.40;;;;;;5059941;28;20694;-78
2021/09/25 10:29:27;;;;;;;4.20;2.65;;;20.60;67.40;;;;;;5051948;28;20470;-78
2021/09/25 10:32:25;;;;;;;3.63;2.42;;;20.60;67.40;;;;;;5058149;28;20040;-78
2021/09/25 10:35:20;;;;;;;3.60;2.28;;;20.60;67.50;;;;;;5052732;28;20116;-78
2021/09/25 10:37:58;;;;;;;4.25;2.60;;;20.60;67.40;;;;;;5046719;28;20028;-78
2021/09/25 10:40:28;;;;;;;3.30;2.15;;;20.60;67.20;;;;;;5064570;28;20028;-78
2021/09/25 10:42:59;;;;;;;2.90;2.30;;;20.70;67.30;;;;;;5042516;28;20469;-79
2021/09/25 10:45:38;;;;;;;3.60;2.70;;;20.70;67.30;;;;;;5075874;28;20367;-79
2021/09/25 10:48:05;;;;;;;4.30;2.63;;;20.70;67.30;;;;;;5048840;28;20448;-78
2021/09/25 10:50:34;;;;;;;3.95;2.75;;;20.70;67.30;;;;;;5046531;28;20032;-78
2021/09/25 10:53:14;;;;;;;3.58;2.50;;;20.70;67.20;;;;;;5042601;28;20091;-79
2021/09/25 10:55:43;;;;;;;3.35;2.42;;;20.70;67.30;;;;;;5042898;28;20025;-79
2021/09/25 10:58:20;;;;;;;4.10;2.78;;;20.80;67.80;;;;;;5064025;28;20032;-78
2021/09/25 11:00:56;;;;;;;3.85;2.20;;;20.80;67.30;;;;;;5045758;28;20032;-79
2021/09/25 11:03:43;;;;;;;3.13;2.33;;;20.80;67.20;;;;;;5059738;28;20108;-78
2021/09/25 11:06:10;;;;;;;3.05;2.25;;;20.90;67.30;;;;;;5059489;28;20032;-78
2021/09/25 11:08:38;;;;;;;3.58;2.40;;;20.90;67.10;;;;;;5050829;28;20469;-78
2021/09/25 11:11:09;;;;;;;3.58;2.30;;;20.90;67.10;;;;;;5044385;28;20433;-78
2021/09/25 11:14:01;;;;;;;4.43;2.70;;;20.90;67.20;;;;;;5061914;28;20064;-79
2021/09/25 11:16:48;;;;;;;3.90;2.70;;;21.00;67.30;;;;;;5052196;28;20033;-79
2021/09/25 11:19:24;;;;;;;3.35;2.25;;;21.00;67.20;;;;;;5060689;28;20037;-78
2021/09/25 11:22:19;;;;;;;3.50;2.50;;;21.00;67.10;;;;;;5062100;28;20455;-78
2021/09/25 11:24:53;;;;;;;3.45;2.40;;;21.00;67.10;;;;;;5049514;28;20025;-78
2021/09/25 11:27:27;;;;;;;4.15;2.72;;;21.10;67.00;;;;;;5054472;28;20059;-78
2021/09/25 11:30:11;;;;;;;4.20;2.72;;;21.10;67.00;;;;;;5058893;28;20025;-78
2021/09/25 11:32:53;;;;;;;3.45;2.53;;;21.10;67.00;;;;;;5055146;28;20029;-78
2021/09/25 11:35:27;;;;;;;3.80;2.47;;;21.20;67.00;;;;;;5045135;28;20036;-79
2021/09/25 11:38:05;;;;;;;4.27;2.80;;;21.20;66.90;;;;;;5052889;28;20036;-79
2021/09/25 11:40:38;;;;;;;3.97;2.40;;;21.20;66.90;;;;;;5059151;28;20060;-79
2021/09/25 11:43:09;;;;;;;3.70;2.30;;;21.30;66.80;;;;;;5058803;28;20024;-79
2021/09/25 11:45:52;;;;;;;3.95;2.55;;;21.30;66.80;;;;;;5059324;28;20071;-79
2021/09/25 11:48:20;;;;;;;3.55;2.40;;;21.30;66.80;;;;;;5058717;28;20234;-78
2021/09/25 11:50:50;;;;;;;3.53;2.47;;;21.40;66.70;;;;;;5060254;28;20073;-81
2021/09/25 11:53:21;;;;;;;4.13;2.75;;;21.40;66.70;;;;;;5061600;28;20028;-78
2021/09/25 11:55:48;;;;;;;3.63;2.40;;;21.40;66.70;;;;;;5062921;28;20025;-81
2021/09/25 11:58:18;;;;;;;4.28;2.78;;;21.40;66.70;;;;;;5024248;28;20456;-79
2021/09/25 12:00:51;;;;;;;3.78;2.80;;;21.50;66.70;;;;;;5050363;28;20032;-78
2021/09/25 12:03:18;;;;;;;3.35;2.30;;;21.50;66.70;;;;;;5061870;28;20469;-78
2021/09/25 12:05:48;;;;;;;3.13;2.28;;;21.50;66.60;;;;;;5037641;28;20123;-78
2021/09/25 12:08:19;;;;;;;3.55;2.53;;;21.60;66.60;;;;;;5031088;28;20347;-79
2021/09/25 12:10:56;;;;;;;4.32;2.90;;;21.60;66.50;;;;;;5038951;28;20072;-79
2021/09/25 12:13:35;;;;;;;3.90;2.63;;;21.60;66.50;;;;;;5055115;28;20180;-79
2021/09/25 12:16:03;;;;;;;4.25;2.80;;;21.70;66.50;;;;;;5062036;28;20024;-80
2021/09/25 12:18:38;;;;;;;4.25;2.97;;;21.70;66.40;;;;;;5053572;28;20384;-77
2021/09/25 12:21:03;;;;;;;4.28;2.42;;;21.70;66.50;;;;;;5054629;28;20504;-78
2021/09/25 12:23:39;;;;;;;4.60;2.58;;;21.70;66.40;;;;;;5059451;28;20025;-79
2021/09/25 12:26:06;;;;;;;3.92;2.90;;;21.80;66.40;;;;;;5061113;28;20037;-78
2021/09/25 12:28:47;;;;;;;4.13;2.97;;;21.80;66.30;;;;;;5054289;28;20453;-78
2021/09/25 12:31:35;;;;;;;4.55;3.10;;;21.80;66.40;;;;;;5063189;28;20021;-78
2021/09/25 12:34:03;;;;;;;4.75;2.95;;;21.80;66.40;;;;;;5056386;28;20108;-79
2021/09/25 12:36:43;;;;;;;4.07;2.75;;;21.90;66.30;;;;;;5062388;28;20025;-78
2021/09/25 12:39:12;;;;;;;3.75;2.75;;;21.90;66.30;;;;;;5063078;28;20052;-78
2021/09/25 12:41:43;;;;;;;4.53;3.20;;;21.90;66.20;;;;;;5064131;28;20469;-79
2021/09/25 12:44:09;;;;;;;4.40;2.80;;;21.90;66.10;;;;;;5065045;28;20048;-78
2021/09/25 12:46:37;;;;;;;4.00;2.78;;;22.00;66.10;;;;;;5048665;28;20038;-78
2021/09/25 12:49:07;;;;;;;4.75;3.20;;;22.00;66.10;;;;;;5057521;28;20032;-80
2021/09/25 12:51:39;;;;;;;3.63;2.60;;;22.00;66.10;;;;;;5065848;28;20055;-78